createdAt,value
2023-03-01T00:01:22.775Z,10.50
2023-03-01T00:04:30.955Z,9.70
2023-03-01T00:07:38.268Z,9.50
2023-03-01T00:10:46.064Z,10.10
2023-03-01T00:13:53.792Z,10.10
2023-03-01T00:17:01.843Z,9.40
2023-03-01T00:20:09.548Z,9.50
2023-03-01T00:23:16.938Z,9.90
2023-03-01T00:26:25.305Z,9.00
2023-03-01T00:29:33.480Z,8.30
2023-03-01T00:32:40.761Z,8.70
2023-03-01T00:35:48.938Z,9.90
2023-03-01T00:38:56.818Z,9.30
2023-03-01T00:42:04.219Z,8.60
2023-03-01T00:45:12.131Z,7.80
2023-03-01T00:48:20.132Z,8.00
2023-03-01T00:51:27.847Z,6.60
2023-03-01T00:54:35.949Z,7.90
2023-03-01T00:57:43.654Z,7.10
2023-03-01T01:00:51.589Z,8.10
2023-03-01T01:03:59.753Z,7.50
2023-03-01T01:07:07.611Z,7.50
2023-03-01T01:10:15.523Z,7.20
2023-03-01T01:13:23.548Z,7.60
2023-03-01T01:16:31.913Z,7.10
2023-03-01T01:19:39.747Z,6.90
2023-03-01T01:22:47.436Z,7.10
2023-03-01T01:25:55.144Z,7.00
2023-03-01T01:29:03.060Z,7.40
2023-03-01T01:32:10.801Z,7.60
2023-03-01T01:35:19.153Z,7.40
2023-03-01T01:38:26.598Z,7.00
2023-03-01T01:41:34.309Z,7.00
2023-03-01T01:44:42.582Z,7.70
2023-03-01T01:47:50.110Z,7.80
2023-03-01T01:50:58.402Z,7.80
2023-03-01T01:54:05.997Z,7.30
2023-03-01T01:57:13.802Z,7.20
2023-03-01T02:00:21.671Z,7.50
2023-03-01T02:03:29.475Z,6.60
2023-03-01T02:06:37.292Z,7.60
2023-03-01T02:09:44.914Z,7.20
2023-03-01T02:12:52.780Z,7.10
2023-03-01T02:16:00.432Z,8.10
2023-03-01T02:19:08.298Z,6.80
2023-03-01T02:22:15.906Z,7.30
2023-03-01T02:25:23.551Z,7.60
2023-03-01T02:28:31.114Z,7.50
2023-03-01T02:31:39.133Z,6.70
2023-03-01T02:34:46.825Z,7.40
2023-03-01T02:37:54.394Z,8.10
2023-03-01T02:41:02.625Z,7.70
2023-03-01T02:44:10.044Z,7.90
2023-03-01T02:47:18.274Z,7.80
2023-03-01T02:50:26.338Z,8.70
2023-03-01T02:53:34.043Z,8.90
2023-03-01T02:56:41.927Z,9.30
2023-03-01T02:59:50.214Z,9.30
2023-03-01T03:02:57.948Z,9.40
2023-03-01T03:06:05.502Z,8.70
2023-03-01T03:09:15.811Z,9.70
2023-03-01T03:12:24.739Z,9.20
2023-03-01T03:15:32.114Z,9.70
2023-03-01T03:18:39.887Z,8.80
2023-03-01T03:21:47.593Z,8.80
2023-03-01T03:24:55.466Z,8.90
2023-03-01T03:28:03.247Z,9.00
2023-03-01T03:31:10.969Z,9.10
2023-03-01T03:34:19.222Z,8.50
2023-03-01T03:37:26.928Z,9.30
2023-03-01T03:40:34.718Z,9.00
2023-03-01T03:43:42.501Z,9.10
2023-03-01T03:46:50.164Z,9.40
2023-03-01T03:49:57.902Z,8.70
2023-03-01T03:53:05.655Z,8.90
2023-03-01T03:56:13.679Z,9.30
2023-03-01T03:59:21.491Z,9.00
2023-03-01T04:02:29.412Z,8.30
2023-03-01T04:05:37.390Z,9.00
2023-03-01T04:08:45.352Z,9.20
2023-03-01T04:11:53.062Z,8.20
2023-03-01T04:15:01.441Z,8.00
2023-03-01T04:18:08.832Z,8.10
2023-03-01T04:21:16.768Z,8.10
2023-03-01T04:24:24.736Z,7.80
2023-03-01T04:27:32.043Z,8.10
2023-03-01T04:30:40.401Z,7.50
2023-03-01T04:33:47.661Z,8.10
2023-03-01T04:36:56.095Z,7.20
2023-03-01T04:40:04.437Z,8.20
2023-03-01T04:43:12.058Z,7.50
2023-03-01T04:46:20.311Z,8.10
2023-03-01T04:49:28.391Z,8.10
2023-03-01T04:52:35.658Z,8.50
2023-03-01T04:55:43.820Z,8.60
2023-03-01T04:58:51.971Z,9.50
2023-03-01T05:01:59.366Z,8.40
2023-03-01T05:05:07.580Z,7.70
2023-03-01T05:08:15.140Z,7.80
2023-03-01T05:11:22.962Z,7.60
2023-03-01T05:14:31.318Z,7.30
2023-03-01T05:17:39.113Z,8.00
2023-03-01T05:20:47.125Z,7.90
2023-03-01T05:23:54.968Z,8.20
2023-03-01T05:27:02.581Z,8.10
2023-03-01T05:30:10.622Z,8.70
2023-03-01T05:33:18.162Z,9.20
2023-03-01T05:36:26.066Z,9.50
2023-03-01T05:39:33.745Z,9.60
2023-03-01T05:42:41.363Z,9.00
2023-03-01T05:45:49.630Z,8.20
2023-03-01T05:48:57.257Z,8.70
2023-03-01T05:52:04.540Z,8.90
2023-03-01T05:55:12.517Z,9.40
2023-03-01T05:58:20.540Z,9.00
2023-03-01T06:01:28.256Z,8.40
2023-03-01T06:04:36.272Z,8.90
2023-03-01T06:07:44.095Z,9.50
2023-03-01T06:10:51.464Z,8.60
2023-03-01T06:13:59.623Z,8.90
2023-03-01T06:17:07.287Z,9.10
2023-03-01T06:20:15.250Z,9.00
2023-03-01T06:23:22.849Z,9.50
2023-03-01T06:26:31.321Z,9.30
2023-03-01T06:29:40.667Z,9.90
2023-03-01T06:32:49.312Z,9.50
2023-03-01T06:35:57.402Z,9.90
2023-03-01T06:39:04.998Z,9.60
2023-03-01T06:42:12.711Z,9.40
2023-03-01T06:45:21.004Z,9.20
2023-03-01T06:48:28.633Z,9.60
2023-03-01T06:51:36.141Z,9.00
2023-03-01T06:54:44.142Z,9.40
2023-03-01T06:57:51.598Z,9.00
2023-03-01T07:00:59.718Z,10.20
2023-03-01T07:04:08.118Z,12.60
2023-03-01T07:07:15.417Z,11.40
2023-03-01T07:10:23.474Z,10.90
2023-03-01T07:13:31.428Z,10.60
2023-03-01T07:16:39.302Z,10.40
2023-03-01T07:19:47.328Z,10.20
2023-03-01T07:22:55.817Z,12.10
2023-03-01T07:26:03.440Z,12.20
2023-03-01T07:29:10.937Z,13.00
2023-03-01T07:32:18.837Z,12.60
2023-03-01T07:35:27.076Z,11.20
2023-03-01T07:38:34.781Z,10.70
2023-03-01T07:41:42.612Z,10.30
2023-03-01T07:44:50.590Z,10.90
2023-03-01T07:47:58.258Z,11.10
2023-03-01T07:51:05.864Z,11.50
2023-03-01T07:54:13.902Z,12.60
2023-03-01T07:57:22.085Z,13.10
2023-03-01T08:00:29.732Z,13.40
2023-03-01T08:03:37.928Z,12.30
2023-03-01T08:06:45.691Z,14.10
2023-03-01T08:09:53.488Z,14.00
2023-03-01T08:13:01.498Z,14.20
2023-03-01T08:16:08.975Z,16.30
2023-03-01T08:19:17.209Z,15.70
2023-03-01T08:22:25.326Z,15.10
2023-03-01T08:25:32.659Z,14.30
2023-03-01T08:28:40.642Z,14.70
2023-03-01T08:31:48.701Z,14.70
2023-03-01T08:34:56.048Z,10.30
2023-03-01T08:38:04.075Z,10.90
2023-03-01T08:41:11.745Z,11.50
2023-03-01T08:44:19.620Z,11.00
2023-03-01T08:47:27.757Z,10.10
2023-03-01T08:50:35.739Z,10.90
2023-03-01T08:53:43.512Z,9.10
2023-03-01T08:56:51.503Z,8.40
2023-03-01T08:59:59.178Z,6.70
2023-03-01T09:03:07.173Z,6.30
2023-03-01T09:06:14.758Z,7.40
2023-03-01T09:09:22.913Z,6.90
2023-03-01T09:12:31.204Z,7.20
2023-03-01T09:15:38.510Z,7.50
2023-03-01T09:18:46.377Z,6.80
2023-03-01T09:21:54.360Z,6.60
2023-03-01T09:25:01.681Z,7.30
2023-03-01T09:28:15.769Z,6.70
2023-03-01T09:31:14.694Z,6.70
2023-03-01T09:34:22.405Z,6.60
2023-03-01T09:37:30.583Z,6.40
2023-03-01T09:40:38.290Z,6.90
2023-03-01T09:43:51.142Z,6.90
2023-03-01T09:46:48.308Z,7.00
2023-03-01T09:49:56.036Z,6.20
2023-03-01T09:53:03.674Z,6.30
2023-03-01T09:56:11.444Z,6.40
2023-03-01T09:59:20.006Z,6.20
2023-03-01T10:02:28.191Z,5.30
2023-03-01T10:05:35.804Z,5.30
2023-03-01T10:08:43.633Z,5.40
2023-03-01T10:11:51.010Z,5.70
2023-03-01T10:14:59.189Z,4.70
2023-03-01T10:18:07.069Z,5.30
2023-03-01T10:21:14.298Z,5.10
2023-03-01T10:24:22.481Z,5.80
2023-03-01T10:27:29.927Z,4.90
2023-03-01T10:30:38.008Z,5.00
2023-03-01T10:33:46.011Z,5.30
2023-03-01T10:36:53.274Z,5.30
2023-03-01T10:40:01.269Z,5.00
2023-03-01T10:43:08.839Z,4.30
2023-03-01T10:46:16.851Z,4.20
2023-03-01T10:49:24.529Z,4.00
2023-03-01T10:52:32.278Z,4.10
2023-03-01T10:55:40.288Z,5.00
2023-03-01T10:58:48.103Z,4.80
2023-03-01T11:01:55.934Z,4.60
2023-03-01T11:05:04.024Z,4.80
2023-03-01T11:08:11.327Z,5.40
2023-03-01T11:11:19.437Z,5.00
2023-03-01T11:14:28.265Z,5.00
2023-03-01T11:17:48.067Z,5.20
2023-03-01T11:20:41.146Z,4.60
2023-03-01T11:23:49.175Z,5.20
2023-03-01T11:26:56.389Z,4.90
2023-03-01T11:30:04.447Z,5.30
2023-03-01T11:33:12.004Z,5.30
2023-03-01T11:36:19.513Z,4.30
2023-03-01T11:39:27.703Z,4.40
2023-03-01T11:42:35.407Z,5.20
2023-03-01T11:45:43.044Z,4.00
2023-03-01T11:48:50.680Z,3.60
2023-03-01T11:51:58.625Z,4.60
2023-03-01T11:55:06.333Z,4.30
2023-03-01T11:58:14.064Z,4.20
2023-03-01T12:01:22.186Z,4.10
2023-03-01T12:04:30.006Z,4.40
2023-03-01T12:07:37.741Z,4.30
2023-03-01T12:10:45.816Z,3.50
2023-03-01T12:13:53.242Z,4.10
2023-03-01T12:17:01.338Z,3.40
2023-03-01T12:20:10.314Z,3.20
2023-03-01T12:23:20.640Z,3.40
2023-03-01T12:26:18.490Z,3.10
2023-03-01T12:29:26.202Z,3.60
2023-03-01T12:32:36.132Z,2.50
2023-03-01T12:35:44.018Z,3.70
2023-03-01T12:38:51.644Z,4.20
2023-03-01T12:41:59.724Z,3.20
2023-03-01T12:45:07.518Z,3.60
2023-03-01T12:48:15.407Z,3.80
2023-03-01T12:51:23.402Z,3.10
2023-03-01T12:54:30.942Z,3.10
2023-03-01T12:57:38.890Z,3.40
2023-03-01T13:00:46.996Z,3.30
2023-03-01T13:03:54.310Z,3.60
2023-03-01T13:07:02.429Z,3.40
2023-03-01T13:10:10.082Z,3.60
2023-03-01T13:13:17.639Z,2.70
2023-03-01T13:16:26.054Z,3.50
2023-03-01T13:19:33.829Z,3.30
2023-03-01T13:22:49.958Z,3.10
2023-03-01T13:25:47.106Z,3.10
2023-03-01T13:28:54.412Z,3.10
2023-03-01T13:32:02.344Z,2.80
2023-03-01T13:35:10.482Z,2.50
2023-03-01T13:38:17.903Z,2.70
2023-03-01T13:41:26.138Z,2.60
2023-03-01T13:44:34.016Z,3.30
2023-03-01T13:47:42.056Z,3.70
2023-03-01T13:50:49.798Z,3.90
2023-03-01T13:53:57.624Z,3.60
2023-03-01T13:57:05.650Z,16.00
2023-03-01T14:00:13.448Z,3.60
2023-03-01T14:03:21.202Z,3.70
2023-03-01T14:06:29.444Z,3.40
2023-03-01T14:09:36.801Z,2.80
2023-03-01T14:12:44.891Z,3.30
2023-03-01T14:15:53.108Z,2.70
2023-03-01T14:19:00.450Z,3.20
2023-03-01T14:22:08.570Z,3.50
2023-03-01T14:25:16.779Z,3.20
2023-03-01T14:28:24.168Z,3.20
2023-03-01T14:31:36.241Z,2.60
2023-03-01T14:34:35.431Z,3.30
2023-03-01T14:37:43.041Z,2.90
2023-03-01T14:40:51.022Z,2.90
2023-03-01T14:43:59.034Z,2.90
2023-03-01T14:47:06.983Z,3.00
2023-03-01T14:50:15.065Z,3.30
2023-03-01T14:53:22.835Z,2.60
2023-03-01T14:56:31.125Z,3.10
2023-03-01T14:59:39.161Z,2.60
2023-03-01T15:02:47.431Z,3.00
2023-03-01T15:05:55.390Z,2.70
2023-03-01T15:09:03.139Z,2.60
2023-03-01T15:12:11.413Z,2.90
2023-03-01T15:15:18.712Z,2.50
2023-03-01T15:18:26.809Z,3.00
2023-03-01T15:21:35.102Z,3.10
2023-03-01T15:24:42.512Z,2.60
2023-03-01T15:27:50.765Z,2.60
2023-03-01T15:30:59.140Z,2.70
2023-03-01T15:34:06.447Z,2.30
2023-03-01T15:37:14.569Z,2.50
2023-03-01T15:40:22.161Z,2.40
2023-03-01T15:43:30.119Z,2.40
2023-03-01T15:46:38.356Z,2.50
2023-03-01T15:49:54.943Z,2.40
2023-03-01T15:52:51.390Z,2.20
2023-03-01T15:55:59.057Z,2.40
2023-03-01T15:59:06.901Z,2.20
2023-03-01T16:02:14.569Z,2.30
2023-03-01T16:05:22.183Z,2.70
2023-03-01T16:08:29.878Z,2.30
2023-03-01T16:11:37.786Z,2.40
2023-03-01T16:14:45.665Z,1.90
2023-03-01T16:17:53.443Z,2.10
2023-03-01T16:21:00.781Z,2.50
2023-03-01T16:24:08.729Z,3.00
2023-03-01T16:27:16.163Z,2.50
2023-03-01T16:30:24.104Z,2.50
2023-03-01T16:33:34.162Z,2.20
2023-03-01T16:36:42.077Z,2.40
2023-03-01T16:39:49.498Z,2.30
2023-03-01T16:42:57.710Z,2.60
2023-03-01T16:46:05.209Z,2.10
2023-03-01T16:49:13.410Z,2.20
2023-03-01T16:52:21.536Z,2.10
2023-03-01T16:55:29.362Z,2.30
2023-03-01T16:58:37.310Z,2.40
2023-03-01T17:01:45.376Z,2.50
2023-03-01T17:04:53.356Z,2.30
2023-03-01T17:08:01.005Z,3.00
2023-03-01T17:11:08.736Z,2.80
2023-03-01T17:14:16.938Z,2.70
2023-03-01T17:17:24.788Z,2.60
2023-03-01T17:20:32.405Z,2.80
2023-03-01T17:23:40.379Z,2.40
2023-03-01T17:26:48.281Z,2.60
2023-03-01T17:29:56.003Z,2.80
2023-03-01T17:33:03.934Z,4.00
2023-03-01T17:36:11.771Z,13.50
2023-03-01T17:39:19.518Z,6.80
2023-03-01T17:42:27.318Z,10.30
2023-03-01T17:45:34.899Z,6.20
2023-03-01T17:48:42.992Z,6.30
2023-03-01T17:51:50.903Z,4.40
2023-03-01T17:54:58.621Z,4.10
2023-03-01T17:58:06.564Z,3.70
2023-03-01T18:01:14.458Z,3.70
2023-03-01T18:04:22.086Z,3.90
2023-03-01T18:07:30.205Z,4.10
2023-03-01T18:10:37.618Z,3.90
2023-03-01T18:13:45.793Z,4.10
2023-03-01T18:16:54.008Z,3.90
2023-03-01T18:20:01.754Z,3.60
2023-03-01T18:23:09.843Z,4.70
2023-03-01T18:26:17.957Z,4.90
2023-03-01T18:29:25.199Z,6.50
2023-03-01T18:32:33.135Z,3.20
2023-03-01T18:35:40.861Z,3.40
2023-03-01T18:38:48.267Z,3.60
2023-03-01T18:41:56.255Z,3.60
2023-03-01T18:45:03.875Z,3.70
2023-03-01T18:48:11.967Z,6.30
2023-03-01T18:51:19.699Z,31.50
2023-03-01T18:54:27.378Z,10.40
2023-03-01T18:57:35.489Z,4.70
2023-03-01T19:00:43.130Z,5.50
2023-03-01T19:03:50.661Z,5.40
2023-03-01T19:06:58.552Z,6.40
2023-03-01T19:10:06.115Z,5.50
2023-03-01T19:13:13.690Z,6.00
2023-03-01T19:16:21.819Z,7.60
2023-03-01T19:19:29.205Z,6.70
2023-03-01T19:22:37.245Z,6.20
2023-03-01T19:25:45.531Z,5.10
2023-03-01T19:28:52.862Z,5.30
2023-03-01T19:32:00.984Z,4.70
2023-03-01T19:35:08.921Z,4.70
2023-03-01T19:38:16.220Z,5.90
2023-03-01T19:41:24.032Z,6.90
2023-03-01T19:44:31.861Z,6.20
2023-03-01T19:47:39.670Z,5.60
2023-03-01T19:50:47.257Z,5.30
2023-03-01T19:53:55.860Z,6.40
2023-03-01T19:57:04.142Z,5.60
2023-03-01T20:00:12.389Z,6.50
2023-03-01T20:03:20.696Z,6.30
2023-03-01T20:06:28.875Z,6.60
2023-03-01T20:09:36.783Z,6.10
2023-03-01T20:12:45.164Z,6.00
2023-03-01T20:15:52.987Z,6.00
2023-03-01T20:19:00.968Z,7.00
2023-03-01T20:22:08.919Z,6.20
2023-03-01T20:25:16.631Z,6.20
2023-03-01T20:28:24.395Z,6.60
2023-03-01T20:31:32.149Z,5.80
2023-03-01T20:34:39.981Z,5.90
2023-03-01T20:37:47.403Z,5.40
2023-03-01T20:40:55.349Z,5.00
2023-03-01T20:44:02.756Z,7.80
2023-03-01T20:47:10.613Z,6.20
2023-03-01T20:50:18.922Z,6.60
2023-03-01T20:53:26.603Z,6.90
2023-03-01T20:56:35.361Z,5.80
2023-03-01T20:59:43.781Z,7.20
2023-03-01T21:02:51.100Z,7.50
2023-03-01T21:05:59.021Z,6.50
2023-03-01T21:09:06.586Z,7.40
2023-03-01T21:12:14.153Z,7.50
2023-03-01T21:15:29.016Z,7.60
2023-03-01T21:18:25.861Z,6.80
2023-03-01T21:21:33.779Z,7.30
2023-03-01T21:24:41.300Z,8.60
2023-03-01T21:27:49.068Z,8.20
2023-03-01T21:30:56.943Z,7.50
2023-03-01T21:34:05.153Z,6.80
2023-03-01T21:37:12.815Z,7.90
2023-03-01T21:40:20.340Z,8.00
2023-03-01T21:43:28.058Z,7.90
2023-03-01T21:46:36.233Z,6.80
2023-03-01T21:49:43.786Z,6.40
2023-03-01T21:52:51.563Z,7.60
2023-03-01T21:55:59.701Z,8.00
2023-03-01T21:59:07.097Z,8.00
2023-03-01T22:02:14.783Z,8.00
2023-03-01T22:05:22.690Z,8.60
2023-03-01T22:08:30.020Z,8.90
2023-03-01T22:11:37.609Z,9.20
2023-03-01T22:14:45.255Z,9.40
2023-03-01T22:17:52.603Z,8.80
2023-03-01T22:21:00.778Z,9.10
2023-03-01T22:24:08.821Z,8.60
2023-03-01T22:27:16.231Z,8.20
2023-03-01T22:30:24.384Z,7.20
2023-03-01T22:33:32.091Z,7.10
2023-03-01T22:36:39.866Z,7.30
2023-03-01T22:39:47.837Z,6.80
2023-03-01T22:42:55.553Z,6.80
2023-03-01T22:46:03.512Z,7.60
2023-03-01T22:49:11.642Z,7.90
2023-03-01T22:52:19.661Z,7.20
2023-03-01T22:55:27.224Z,9.30
2023-03-01T22:58:35.431Z,10.00
2023-03-01T23:01:44.240Z,8.40
2023-03-01T23:04:52.853Z,9.90
2023-03-01T23:08:00.261Z,9.30
2023-03-01T23:11:08.541Z,10.10
2023-03-01T23:14:16.447Z,9.90
2023-03-01T23:17:24.062Z,10.00
2023-03-01T23:20:32.380Z,9.50
2023-03-01T23:23:40.104Z,9.90
2023-03-01T23:26:47.781Z,9.40
2023-03-01T23:29:55.825Z,8.80
2023-03-01T23:33:03.525Z,8.70
2023-03-01T23:36:11.057Z,7.50
2023-03-01T23:39:19.042Z,7.80
2023-03-01T23:42:26.281Z,8.60
2023-03-01T23:45:34.318Z,7.90
2023-03-01T23:48:42.572Z,7.60
2023-03-01T23:51:49.849Z,6.80
2023-03-01T23:54:58.114Z,7.40
2023-03-01T23:58:06.187Z,8.00
